Time;durP1;ratioP1;P1;durP2;ratioP2;P2;SDS_P1;SDS_P2;PMS_P1;PMS_P2;Temp;Humidity;BMP_temperature;BMP_pressure;BME280_temperature;BME280_humidity;BME280_pressure;Samples;Min_cycle;Max_cycle;Signal;HPM_P1;HPM_P2
2023/07/18 00:01:15;;;;;;;0.00;0.00;;;;;;;13.10;80.36;100897.31;4931768;29;20046;-75
2023/07/18 00:03:41;;;;;;;0.00;0.00;;;;;;;13.08;80.42;100888.53;4934267;29;20490;-75
2023/07/18 00:06:08;;;;;;;0.00;0.00;;;;;;;13.06;81.22;100884.41;4945197;29;20110;-77
2023/07/18 00:08:33;;;;;;;0.00;0.00;;;;;;;12.91;82.16;100876.97;4932593;29;20118;-76
2023/07/18 00:10:59;;;;;;;0.00;0.00;;;;;;;12.97;82.02;100884.13;4946107;29;20127;-76
2023/07/18 00:13:24;;;;;;;0.00;0.00;;;;;;;12.93;82.10;100881.06;4923930;29;20035;-75
2023/07/18 00:15:49;;;;;;;0.00;0.00;;;;;;;12.93;82.20;100888.50;4939424;29;20102;-75
2023/07/18 00:18:15;;;;;;;0.00;0.00;;;;;;;12.91;82.09;100893.44;4934977;29;20051;-75
2023/07/18 00:20:41;;;;;;;0.00;0.00;;;;;;;12.87;82.14;100893.13;4930931;29;20126;-76
2023/07/18 00:23:10;;;;;;;0.00;0.00;;;;;;;12.84;82.89;100898.34;4933528;29;20046;-76
2023/07/18 00:25:36;;;;;;;0.00;0.00;;;;;;;12.84;82.58;100903.84;4951572;29;20035;-76
2023/07/18 00:28:03;;;;;;;0.00;0.00;;;;;;;12.81;82.91;100898.91;4921117;28;20062;-75
2023/07/18 00:30:29;;;;;;;0.00;0.00;;;;;;;12.77;83.15;100897.78;4929868;29;20043;-75
2023/07/18 00:32:56;;;;;;;0.00;0.00;;;;;;;12.65;83.67;100890.59;4951540;29;20453;-76
2023/07/18 00:35:22;;;;;;;0.00;0.00;;;;;;;12.64;83.61;100894.44;4933676;29;20394;-75
2023/07/18 00:37:48;;;;;;;0.00;0.00;;;;;;;12.56;84.16;100887.56;4948933;28;20031;-76
2023/07/18 00:40:14;;;;;;;0.00;0.00;;;;;;;12.53;84.42;100882.59;4917985;29;20027;-75
2023/07/18 00:42:42;;;;;;;0.00;0.00;;;;;;;12.53;84.77;100876.31;4927368;29;20039;-76
2023/07/18 00:45:09;;;;;;;0.00;0.00;;;;;;;12.49;84.72;100865.03;4948964;28;22092;-76
2023/07/18 00:47:40;;;;;;;0.00;0.00;;;;;;;12.50;84.77;100860.34;4960947;28;20024;-75
2023/07/18 00:50:17;;;;;;;0.00;0.00;;;;;;;12.53;85.00;100859.84;4920281;29;20042;-75
2023/07/18 00:52:51;;;;;;;0.00;0.00;;;;;;;12.52;84.59;100859.00;4945955;29;20027;-75
2023/07/18 00:55:18;;;;;;;0.00;0.00;;;;;;;12.52;84.55;100858.19;4950192;28;20564;-75
2023/07/18 00:57:45;;;;;;;0.00;0.00;;;;;;;12.58;84.45;100870.81;4936659;29;20501;-75
2023/07/18 01:00:12;;;;;;;0.00;0.00;;;;;;;12.57;84.76;100861.78;4932699;29;20031;-75
2023/07/18 01:02:40;;;;;;;0.00;0.00;;;;;;;12.57;84.38;100863.69;4933665;29;20170;-75
2023/07/18 01:05:07;;;;;;;0.00;0.00;;;;;;;12.58;84.15;100873.56;4933884;29;20031;-75
2023/07/18 01:07:38;;;;;;;0.00;0.00;;;;;;;12.52;84.74;100864.50;4945159;28;20118;-75
2023/07/18 01:10:16;;;;;;;0.00;0.00;;;;;;;12.54;84.70;100872.44;4930449;29;20114;-75
2023/07/18 01:12:42;;;;;;;0.00;0.00;;;;;;;12.51;84.62;100867.50;4949563;28;20538;-75
2023/07/18 01:15:12;;;;;;;0.00;0.00;;;;;;;12.54;84.45;100861.47;4947903;29;20079;-76
2023/07/18 01:17:42;;;;;;;0.00;0.00;;;;;;;12.56;84.71;100862.03;4940469;29;20050;-75
2023/07/18 01:20:12;;;;;;;0.00;0.00;;;;;;;12.52;85.01;100844.47;4938915;29;20031;-76
2023/07/18 01:22:38;;;;;;;0.00;0.00;;;;;;;12.56;84.78;100831.88;4930201;29;20036;-76
2023/07/18 01:25:04;;;;;;;0.00;0.00;;;;;;;12.61;84.93;100836.53;4922518;29;20038;-75
2023/07/18 01:27:30;;;;;;;0.00;0.00;;;;;;;12.60;85.07;100841.22;4931058;29;20020;-76
2023/07/18 01:29:55;;;;;;;0.00;0.00;;;;;;;12.55;84.83;100835.69;4919060;29;20027;-75
2023/07/18 01:32:21;;;;;;;0.00;0.00;;;;;;;12.51;84.94;100834.59;4927528;29;20057;-75
2023/07/18 01:34:46;;;;;;;0.00;0.00;;;;;;;12.50;85.07;100828.28;4932498;29;20131;-75
2023/07/18 01:37:15;;;;;;;0.00;0.00;;;;;;;12.48;85.76;100824.16;4917261;29;20047;-75
2023/07/18 01:39:40;;;;;;;0.00;0.00;;;;;;;12.45;85.27;100832.91;4930114;29;20455;-75
2023/07/18 01:42:06;;;;;;;0.00;0.00;;;;;;;12.41;85.33;100829.88;4928206;29;20038;-76
2023/07/18 01:44:33;;;;;;;0.00;0.00;;;;;;;12.38;85.98;100825.78;4910708;29;20557;-75
2023/07/18 01:46:59;;;;;;;0.00;0.00;;;;;;;12.35;85.77;100819.97;4930512;29;20166;-76
2023/07/18 01:49:24;;;;;;;0.00;0.00;;;;;;;12.36;85.91;100806.00;4949983;29;20115;-75
2023/07/18 01:51:50;;;;;;;0.00;0.00;;;;;;;12.41;86.06;100813.41;4930134;29;20376;-74
2023/07/18 01:54:15;;;;;;;0.00;0.00;;;;;;;12.48;86.10;100811.25;4952240;28;20033;-75
2023/07/18 01:56:41;;;;;;;0.00;0.00;;;;;;;12.48;85.71;100810.44;4938956;28;20033;-75
2023/07/18 01:59:06;;;;;;;0.00;0.00;;;;;;;12.50;85.66;100810.97;4950644;28;20031;-75
2023/07/18 02:01:32;;;;;;;0.00;0.00;;;;;;;12.55;85.44;100819.25;4922109;28;20506;-76
2023/07/18 02:03:57;;;;;;;0.00;0.00;;;;;;;12.57;85.51;100811.56;4949695;28;20030;-75
2023/07/18 02:06:24;;;;;;;0.00;0.00;;;;;;;12.58;85.27;100808.53;4922764;29;20091;-74
2023/07/18 02:08:51;;;;;;;0.00;0.00;;;;;;;12.60;85.77;100805.56;4949758;28;20031;-76
2023/07/18 02:11:16;;;;;;;0.00;0.00;;;;;;;12.63;85.51;100802.25;4931984;28;20041;-73
2023/07/18 02:13:42;;;;;;;0.00;0.00;;;;;;;12.64;85.35;100803.88;4943271;28;20456;-75
2023/07/18 02:16:07;;;;;;;0.00;0.00;;;;;;;12.63;85.58;100794.03;4958614;28;20035;-74
2023/07/18 02:18:33;;;;;;;0.00;0.00;;;;;;;12.67;85.54;100795.13;4919326;28;20030;-74
2023/07/18 02:20:58;;;;;;;0.00;0.00;;;;;;;12.70;85.67;100788.25;4945049;28;20745;-75
2023/07/18 02:23:23;;;;;;;0.00;0.00;;;;;;;12.69;85.41;100792.94;4969309;28;20109;-75
2023/07/18 02:25:49;;;;;;;0.00;0.00;;;;;;;12.68;85.14;100795.97;4943503;28;20537;-74
2023/07/18 02:28:14;;;;;;;0.00;0.00;;;;;;;12.63;85.52;100783.06;4952607;28;20481;-75
2023/07/18 02:30:42;;;;;;;0.00;0.00;;;;;;;12.63;85.82;100772.09;4933136;28;20039;-75
2023/07/18 02:33:08;;;;;;;0.00;0.00;;;;;;;12.60;85.52;100777.28;4939581;28;20442;-75
2023/07/18 02:35:34;;;;;;;0.00;0.00;;;;;;;12.56;86.09;100766.03;4961838;28;20070;-75
2023/07/18 02:37:59;;;;;;;0.00;0.00;;;;;;;12.57;86.04;100771.25;4924164;28;20027;-74
2023/07/18 02:40:25;;;;;;;0.00;0.00;;;;;;;12.55;86.00;100773.41;4935258;29;20016;-74
2023/07/18 02:42:50;;;;;;;0.00;0.00;;;;;;;12.53;86.06;100772.06;4949715;28;20050;-75
2023/07/18 02:45:15;;;;;;;0.00;0.00;;;;;;;12.50;85.99;100772.56;4943446;29;20035;-75
2023/07/18 02:47:41;;;;;;;0.00;0.00;;;;;;;12.46;86.34;100771.50;4949529;28;20390;-75
2023/07/18 02:50:08;;;;;;;0.00;0.00;;;;;;;12.46;86.36;100771.50;4918876;29;20657;-75
2023/07/18 02:52:33;;;;;;;0.00;0.00;;;;;;;12.42;86.30;100767.63;4938187;28;20034;-75
2023/07/18 02:54:59;;;;;;;0.00;0.00;;;;;;;12.33;86.96;100768.16;4971097;28;20047;-75
2023/07/18 02:57:24;;;;;;;0.00;0.00;;;;;;;12.30;87.17;100774.19;4945586;28;20174;-75
2023/07/18 02:59:50;;;;;;;0.00;0.00;;;;;;;12.19;87.80;100767.84;4951475;28;20031;-76
2023/07/18 03:02:15;;;;;;;0.00;0.00;;;;;;;12.14;87.90;100764.25;4945910;29;20035;-75
2023/07/18 03:04:42;;;;;;;0.00;0.00;;;;;;;12.10;88.31;100774.91;4938116;28;20041;-75
2023/07/18 03:07:07;;;;;;;0.00;0.00;;;;;;;12.08;88.83;100765.34;4970010;28;20038;-75
2023/07/18 03:09:34;;;;;;;0.08;0.08;;;;;;;12.00;88.52;100761.16;4943927;28;20031;-75
2023/07/18 03:12:00;;;;;;;0.00;0.00;;;;;;;11.95;88.53;100767.47;4971870;28;20018;-77
2023/07/18 03:14:25;;;;;;;0.00;0.00;;;;;;;11.81;88.97;100756.13;4937033;28;20031;-77
2023/07/18 03:16:50;;;;;;;0.00;0.00;;;;;;;11.91;88.62;100766.31;4966420;28;20101;-77
2023/07/18 03:19:16;;;;;;;0.00;0.00;;;;;;;11.86;89.29;100763.56;4938998;28;20030;-76
2023/07/18 03:21:43;;;;;;;0.00;0.00;;;;;;;11.83;89.20;100758.59;4941417;28;20023;-76
2023/07/18 03:24:11;;;;;;;0.00;0.00;;;;;;;11.83;89.01;100761.34;4938626;28;20042;-76
2023/07/18 03:26:36;;;;;;;0.00;0.00;;;;;;;11.75;89.48;100745.41;4969035;28;20396;-77
2023/07/18 03:29:04;;;;;;;0.00;0.00;;;;;;;11.80;89.20;100759.16;4924589;28;20031;-77
2023/07/18 03:31:31;;;;;;;0.08;0.08;;;;;;;11.77;89.37;100754.16;4928648;28;20057;-75
2023/07/18 03:33:57;;;;;;;0.00;0.00;;;;;;;11.77;89.62;100751.44;4916582;28;20051;-76
2023/07/18 03:36:22;;;;;;;0.00;0.00;;;;;;;11.80;88.95;100748.19;4923478;28;20057;-77
2023/07/18 03:38:48;;;;;;;0.00;0.00;;;;;;;11.85;89.13;100757.22;4954371;28;20030;-76
2023/07/18 03:41:14;;;;;;;0.00;0.00;;;;;;;11.83;89.05;100753.13;4953897;28;20047;-78
2023/07/18 03:43:39;;;;;;;0.00;0.00;;;;;;;11.90;89.50;100753.72;4937050;28;20031;-76
2023/07/18 03:46:04;;;;;;;0.00;0.00;;;;;;;11.94;89.15;100754.84;4944843;28;20047;-77
2023/07/18 03:48:34;;;;;;;0.00;0.00;;;;;;;11.98;88.98;100761.44;4936834;28;20069;-78
2023/07/18 03:51:04;;;;;;;0.00;0.00;;;;;;;11.97;89.47;100759.81;4933983;28;20081;-76
2023/07/18 03:53:30;;;;;;;0.00;0.00;;;;;;;11.97;89.08;100759.81;4941393;28;20054;-75
2023/07/18 03:56:09;;;;;;;0.00;0.00;;;;;;;11.99;89.27;100757.63;4922413;28;20054;-75
2023/07/18 03:58:35;;;;;;;0.00;0.00;;;;;;;11.86;89.09;100747.94;4950088;28;20049;-75
2023/07/18 04:01:10;;;;;;;0.00;0.00;;;;;;;11.94;89.83;100765.78;4939807;28;20043;-75
2023/07/18 04:03:38;;;;;;;0.00;0.00;;;;;;;11.90;90.05;100763.84;4956704;28;20031;-76
2023/07/18 04:06:04;;;;;;;0.00;0.00;;;;;;;11.84;89.72;100765.72;4923253;28;20042;-75
2023/07/18 04:08:30;;;;;;;0.00;0.00;;;;;;;11.82;90.13;100762.44;4948927;28;20397;-75
2023/07/18 04:10:57;;;;;;;0.00;0.00;;;;;;;11.80;90.42;100764.63;4937173;28;20065;-76
2023/07/18 04:13:24;;;;;;;0.00;0.00;;;;;;;11.76;90.70;100761.56;4938870;28;20085;-76
2023/07/18 04:15:49;;;;;;;0.00;0.00;;;;;;;11.69;91.10;100747.28;4930962;29;20039;-76
2023/07/18 04:18:14;;;;;;;0.00;0.00;;;;;;;11.70;90.92;100755.25;4921951;28;20041;-76
2023/07/18 04:20:40;;;;;;;0.00;0.00;;;;;;;11.68;90.95;100757.44;4945970;28;20100;-76
2023/07/18 04:23:05;;;;;;;0.00;0.00;;;;;;;11.68;91.28;100751.94;4938559;28;20122;-75
2023/07/18 04:25:35;;;;;;;0.00;0.00;;;;;;;11.77;91.44;100759.66;4934312;28;20019;-76
2023/07/18 04:28:01;;;;;;;0.00;0.00;;;;;;;11.80;90.81;100759.16;4953238;28;20045;-75
2023/07/18 04:30:27;;;;;;;0.00;0.00;;;;;;;11.82;91.08;100751.47;4952343;28;20046;-76
2023/07/18 04:32:52;;;;;;;0.00;0.00;;;;;;;11.86;91.32;100763.56;4934855;29;20055;-76
2023/07/18 04:35:17;;;;;;;0.10;0.10;;;;;;;11.84;90.87;100754.75;4936280;28;20035;-76
2023/07/18 04:37:43;;;;;;;0.00;0.00;;;;;;;11.83;90.69;100762.16;4927589;29;20031;-76
2023/07/18 04:40:12;;;;;;;0.00;0.00;;;;;;;11.83;91.06;100758.59;4933913;28;20046;-78
2023/07/18 04:42:37;;;;;;;0.00;0.00;;;;;;;11.80;91.15;100756.41;4943462;29;20066;-78
2023/07/18 04:45:11;;;;;;;0.00;0.00;;;;;;;11.77;90.67;100751.44;4921197;28;20747;-79
2023/07/18 04:47:39;;;;;;;0.00;0.00;;;;;;;11.79;91.14;100749.25;4934332;28;20038;-79
2023/07/18 04:50:07;;;;;;;0.00;0.00;;;;;;;11.84;90.87;100749.28;4960866;28;20070;-77
2023/07/18 04:52:32;;;;;;;0.00;0.00;;;;;;;11.94;90.98;100759.50;4945819;28;20739;-75
2023/07/18 04:55:00;;;;;;;0.00;0.00;;;;;;;11.98;90.31;100745.00;4923776;29;20146;-76
2023/07/18 04:57:26;;;;;;;0.00;0.00;;;;;;;12.01;90.44;100738.97;4941175;28;20027;-75
2023/07/18 04:59:51;;;;;;;0.00;0.00;;;;;;;12.10;90.26;100735.72;4923029;28;20464;-76
2023/07/18 05:02:17;;;;;;;0.00;0.00;;;;;;;12.16;90.13;100734.66;4935882;28;20037;-75
2023/07/18 05:04:42;;;;;;;0.00;0.00;;;;;;;12.29;89.89;100742.34;4926413;28;20485;-75
2023/07/18 05:07:08;;;;;;;0.00;0.00;;;;;;;12.36;89.44;100734.69;4936704;28;20038;-75
2023/07/18 05:09:34;;;;;;;0.00;0.00;;;;;;;12.44;89.49;100735.28;4931455;29;20027;-76
2023/07/18 05:11:59;;;;;;;0.00;0.00;;;;;;;12.46;89.37;100722.13;4930983;28;20513;-76
2023/07/18 05:14:25;;;;;;;0.00;0.00;;;;;;;12.52;88.82;100721.84;4906882;28;20046;-76
2023/07/18 05:16:50;;;;;;;0.00;0.00;;;;;;;12.64;88.82;100726.25;4925234;28;20027;-76
2023/07/18 05:19:15;;;;;;;0.00;0.00;;;;;;;12.74;88.66;100729.81;4919771;28;20104;-74
2023/07/18 05:21:41;;;;;;;0.00;0.00;;;;;;;12.83;88.16;100729.28;4926217;28;20042;-75
2023/07/18 05:24:07;;;;;;;0.00;0.00;;;;;;;12.86;88.14;100728.75;4945524;28;20039;-75
2023/07/18 05:26:32;;;;;;;0.00;0.00;;;;;;;12.94;88.16;100733.69;4946866;28;20035;-75
2023/07/18 05:28:58;;;;;;;0.00;0.00;;;;;;;13.05;87.60;100729.00;4904766;29;20035;-76
2023/07/18 05:31:23;;;;;;;0.00;0.00;;;;;;;13.13;87.64;100727.63;4951829;28;20031;-74
2023/07/18 05:33:48;;;;;;;0.00;0.00;;;;;;;13.22;87.14;100728.75;4922638;28;20049;-75
2023/07/18 05:36:16;;;;;;;0.00;0.00;;;;;;;13.32;87.14;100728.72;4922273;28;20470;-77
2023/07/18 05:38:43;;;;;;;0.00;0.00;;;;;;;13.42;86.86;100726.00;4953303;28;20023;-77
2023/07/18 05:41:08;;;;;;;0.00;0.00;;;;;;;13.54;86.25;100733.13;4928020;28;20066;-74
2023/07/18 05:43:34;;;;;;;0.03;0.03;;;;;;;13.65;86.15;100739.41;4932190;29;20470;-76
2023/07/18 05:45:59;;;;;;;0.00;0.00;;;;;;;13.72;85.53;100734.44;4929652;28;20086;-75
2023/07/18 05:48:25;;;;;;;0.00;0.00;;;;;;;13.75;85.65;100731.13;4934712;28;20027;-77
2023/07/18 05:50:50;;;;;;;0.00;0.00;;;;;;;13.84;85.67;100728.63;4935392;28;20090;-77
2023/07/18 05:53:16;;;;;;;0.00;0.00;;;;;;;13.90;85.16;100732.97;4946329;28;20031;-75
2023/07/18 05:55:54;;;;;;;0.00;0.00;;;;;;;14.02;84.83;100730.75;4953680;28;20078;-74
2023/07/18 05:58:19;;;;;;;0.00;0.00;;;;;;;14.05;84.80;100719.19;4957962;28;20037;-75
2023/07/18 06:00:45;;;;;;;0.00;0.00;;;;;;;14.12;84.66;100725.19;4931513;28;20039;-74
2023/07/18 06:03:12;;;;;;;0.00;0.00;;;;;;;14.21;84.44;100716.38;4968371;28;20125;-76
2023/07/18 06:05:38;;;;;;;0.00;0.00;;;;;;;14.44;83.85;100721.19;4933487;28;20090;-76
2023/07/18 06:08:04;;;;;;;0.00;0.00;;;;;;;14.62;83.19;100721.66;4962065;28;20028;-75
2023/07/18 06:10:30;;;;;;;0.00;0.00;;;;;;;14.79;82.93;100727.56;4952618;28;20114;-75
2023/07/18 06:12:56;;;;;;;0.00;0.00;;;;;;;14.93;82.38;100721.41;4943450;28;20507;-75
2023/07/18 06:15:21;;;;;;;0.00;0.00;;;;;;;15.00;82.07;100716.38;4946036;28;20035;-74
2023/07/18 06:17:47;;;;;;;0.00;0.00;;;;;;;15.17;81.39;100726.97;4938488;28;20033;-76
2023/07/18 06:20:12;;;;;;;0.00;0.00;;;;;;;15.27;81.40;100720.53;4936881;28;20130;-75
2023/07/18 06:22:39;;;;;;;0.00;0.00;;;;;;;15.37;80.93;100712.19;4942084;28;20113;-76
2023/07/18 06:25:07;;;;;;;0.00;0.00;;;;;;;15.51;80.47;100713.13;4936171;28;20019;-75
2023/07/18 06:27:33;;;;;;;0.00;0.00;;;;;;;15.63;80.44;100709.16;4955888;28;20037;-76
2023/07/18 06:29:59;;;;;;;0.00;0.00;;;;;;;15.78;79.51;100700.72;4938997;28;20034;-75
2023/07/18 06:32:25;;;;;;;0.00;0.00;;;;;;;16.00;79.59;100711.22;4933341;28;20509;-76
2023/07/18 06:34:51;;;;;;;0.00;0.00;;;;;;;16.13;78.44;100714.34;4960209;28;20031;-75
2023/07/18 06:37:16;;;;;;;0.00;0.00;;;;;;;16.20;78.32;100721.16;4936111;28;20038;-76
2023/07/18 06:39:42;;;;;;;0.00;0.00;;;;;;;16.19;78.31;100719.53;4948744;28;20027;-74
2023/07/18 06:42:10;;;;;;;0.00;0.00;;;;;;;16.16;78.23;100708.25;4963056;28;20805;-75
2023/07/18 06:44:36;;;;;;;0.00;0.00;;;;;;;16.26;77.77;100721.09;4943893;28;20101;-74
2023/07/18 06:47:01;;;;;;;0.00;0.00;;;;;;;16.26;77.62;100702.59;4930978;29;20042;-78
2023/07/18 06:49:26;;;;;;;0.00;0.00;;;;;;;16.42;77.30;100705.13;4961700;28;20027;-79
2023/07/18 06:51:52;;;;;;;0.00;0.00;;;;;;;16.44;76.62;100709.25;4931101;28;20529;-77
2023/07/18 06:54:18;;;;;;;0.00;0.00;;;;;;;16.47;76.30;100710.56;4923607;28;20057;-79
2023/07/18 06:56:45;;;;;;;0.00;0.00;;;;;;;16.66;76.48;100694.00;4945441;28;20031;-77
2023/07/18 06:59:11;;;;;;;0.00;0.00;;;;;;;16.92;75.23;100686.97;4950704;28;20023;-86
2023/07/18 07:01:36;;;;;;;0.00;0.00;;;;;;;17.25;74.75;100689.69;4958694;28;20045;-77
2023/07/18 07:04:02;;;;;;;0.00;0.00;;;;;;;17.65;73.74;100699.47;4950507;28;20434;-77
2023/07/18 07:06:28;;;;;;;0.00;0.00;;;;;;;17.74;73.15;100687.38;4936173;28;20398;-77
2023/07/18 07:08:53;;;;;;;0.00;0.00;;;;;;;17.87;72.64;100702.34;4938603;28;20030;-78
2023/07/18 07:11:19;;;;;;;0.00;0.00;;;;;;;17.96;72.25;100708.81;4951520;28;20470;-77
2023/07/18 07:13:45;;;;;;;0.00;0.00;;;;;;;17.87;71.36;100701.50;4954842;28;20437;-76
2023/07/18 07:16:10;;;;;;;0.00;0.00;;;;;;;17.65;71.04;100702.22;4940557;28;20039;-77
2023/07/18 07:18:36;;;;;;;0.00;0.00;;;;;;;17.48;71.81;100698.13;4943893;28;20035;-77
2023/07/18 07:21:02;;;;;;;0.00;0.00;;;;;;;17.47;71.61;100695.66;4937262;28;20038;-76
2023/07/18 07:23:30;;;;;;;0.00;0.00;;;;;;;17.39;71.93;100688.88;4941425;28;20110;-76
2023/07/18 07:25:55;;;;;;;0.00;0.00;;;;;;;17.51;71.94;100691.97;4960538;28;20085;-76
2023/07/18 07:28:23;;;;;;;0.00;0.00;;;;;;;17.60;69.85;100684.59;4919060;28;20039;-76
2023/07/18 07:30:50;;;;;;;0.00;0.00;;;;;;;17.63;70.12;100692.28;4927083;29;20027;-78
2023/07/18 07:33:15;;;;;;;0.00;0.00;;;;;;;17.69;69.83;100679.16;4941802;28;20696;-76
2023/07/18 07:35:41;;;;;;;0.00;0.00;;;;;;;17.61;69.57;100680.72;4955481;28;20038;-76
2023/07/18 07:38:06;;;;;;;0.00;0.00;;;;;;;17.65;69.65;100685.63;4947784;28;20493;-78
2023/07/18 07:40:32;;;;;;;0.00;0.00;;;;;;;17.76;68.83;100681.53;4952894;28;20035;-78
2023/07/18 07:43:00;;;;;;;0.00;0.00;;;;;;;18.03;69.16;100679.88;4936765;28;20035;-77
2023/07/18 07:45:25;;;;;;;0.00;0.00;;;;;;;18.46;68.24;100673.94;4926667;28;20046;-77
2023/07/18 07:48:01;;;;;;;0.00;0.00;;;;;;;18.66;67.12;100670.69;4929498;28;20027;-79
2023/07/18 07:50:39;;;;;;;;;;;;;;;;;;;;;
2023/07/18 07:53:04;;;;;;;0.00;0.00;;;;;;;19.10;65.63;100668.22;4954944;28;20033;-77
2023/07/18 07:55:30;;;;;;;0.00;0.00;;;;;;;19.28;65.39;100680.19;4959935;28;20463;-77
2023/07/18 07:57:58;;;;;;;0.00;0.00;;;;;;;19.45;64.75;100673.91;4949514;28;20109;-76
2023/07/18 08:00:24;;;;;;;0.00;0.00;;;;;;;19.66;64.80;100676.91;4920786;29;20031;-76
2023/07/18 08:02:49;;;;;;;0.00;0.00;;;;;;;19.70;62.82;100680.69;4939118;28;20026;-77
2023/07/18 08:05:20;;;;;;;0.00;0.00;;;;;;;19.69;63.21;100667.16;4932767;28;20036;-74
2023/07/18 08:07:46;;;;;;;0.00;0.00;;;;;;;20.09;63.21;100680.16;4948982;28;20031;-75
2023/07/18 08:10:11;;;;;;;0.00;0.00;;;;;;;20.44;60.23;100685.75;4930756;28;20034;-74
2023/07/18 08:12:37;;;;;;;0.00;0.00;;;;;;;20.35;60.38;100683.75;4953881;28;20117;-73
2023/07/18 08:15:04;;;;;;;0.00;0.00;;;;;;;20.52;59.76;100676.59;4938959;28;20467;-73
2023/07/18 08:17:29;;;;;;;0.00;0.00;;;;;;;20.42;59.85;100682.47;4947138;28;20019;-74
2023/07/18 08:19:55;;;;;;;0.00;0.00;;;;;;;20.55;59.60;100682.31;4938292;28;20034;-73
2023/07/18 08:22:20;;;;;;;0.00;0.00;;;;;;;20.82;58.67;100683.16;4936655;28;20026;-74
2023/07/18 08:24:46;;;;;;;0.00;0.00;;;;;;;20.95;57.89;100678.53;4951012;28;20434;-74
2023/07/18 08:27:11;;;;;;;0.00;0.00;;;;;;;21.33;57.61;100674.97;4920018;29;20042;-73
2023/07/18 08:29:39;;;;;;;0.00;0.00;;;;;;;21.88;56.78;100664.91;4932668;28;20393;-74
2023/07/18 08:32:04;;;;;;;0.00;0.00;;;;;;;22.69;55.41;100670.38;4927604;29;20066;-75
2023/07/18 08:34:30;;;;;;;0.00;0.00;;;;;;;23.46;54.30;100674.66;4937781;28;20065;-74
2023/07/18 08:36:55;;;;;;;0.00;0.00;;;;;;;24.02;51.59;100680.50;4949407;28;20051;-74
2023/07/18 08:39:21;;;;;;;0.00;0.00;;;;;;;24.00;50.50;100673.63;4945840;28;20036;-75
2023/07/18 08:41:51;;;;;;;0.00;0.00;;;;;;;24.17;49.70;100670.56;4952469;28;20473;-74
2023/07/18 08:44:17;;;;;;;0.00;0.00;;;;;;;24.54;48.74;100676.03;4938247;28;20090;-74
2023/07/18 08:46:47;;;;;;;0.00;0.00;;;;;;;24.65;48.76;100676.38;4971805;28;20393;-74
2023/07/18 08:49:15;;;;;;;0.00;0.00;;;;;;;24.87;48.14;100672.19;4919967;28;20086;-75
2023/07/18 08:51:41;;;;;;;0.00;0.00;;;;;;;25.05;47.70;100669.06;4952827;28;20081;-74
2023/07/18 08:54:07;;;;;;;0.00;0.00;;;;;;;25.28;47.20;100669.28;4947982;28;20409;-76
2023/07/18 08:56:33;;;;;;;0.00;0.00;;;;;;;25.77;46.50;100670.88;4927249;28;20023;-78
2023/07/18 08:59:00;;;;;;;0.00;0.00;;;;;;;25.98;46.25;100664.16;4965899;28;20034;-77
2023/07/18 09:01:26;;;;;;;0.00;0.00;;;;;;;25.66;43.00;100675.44;4963139;28;20081;-75
2023/07/18 09:03:51;;;;;;;0.00;0.00;;;;;;;25.13;44.37;100659.69;4935754;28;20086;-75
2023/07/18 09:06:19;;;;;;;0.00;0.00;;;;;;;24.99;43.30;100681.69;4920819;29;20031;-76
2023/07/18 09:08:48;;;;;;;0.00;0.00;;;;;;;24.30;44.42;100674.13;4950698;28;20393;-75
2023/07/18 09:11:18;;;;;;;0.00;0.00;;;;;;;23.82;45.20;100665.47;4949616;28;20114;-77
2023/07/18 09:13:43;;;;;;;0.00;0.00;;;;;;;23.57;45.49;100661.03;4950050;28;20031;-75
2023/07/18 09:16:12;;;;;;;0.00;0.00;;;;;;;23.14;46.66;100664.06;4946035;28;20031;-74
2023/07/18 09:18:38;;;;;;;0.00;0.00;;;;;;;22.92;47.05;100659.66;4950830;28;20058;-74
2023/07/18 09:21:09;;;;;;;0.00;0.00;;;;;;;23.24;47.51;100661.97;4942724;28;20035;-74
2023/07/18 09:23:42;;;;;;;0.00;0.00;;;;;;;23.41;46.55;100645.00;4951958;28;21521;-74
2023/07/18 09:26:14;;;;;;;0.00;0.00;;;;;;;23.75;45.67;100642.91;4923066;28;20129;-73
2023/07/18 09:28:40;;;;;;;0.00;0.00;;;;;;;24.32;44.71;100640.25;4949357;29;20031;-75
2023/07/18 09:31:17;;;;;;;0.00;0.00;;;;;;;25.16;43.67;100638.56;4944365;28;20115;-74
2023/07/18 09:33:43;;;;;;;0.00;0.00;;;;;;;25.06;42.87;100631.53;4961228;28;20023;-74
2023/07/18 09:36:14;;;;;;;0.00;0.00;;;;;;;24.96;43.59;100643.25;4937089;28;20556;-77
2023/07/18 09:38:40;;;;;;;0.00;0.00;;;;;;;24.76;43.03;100640.31;4924171;29;20108;-72
2023/07/18 09:41:07;;;;;;;0.00;0.00;;;;;;;24.67;43.70;100625.69;4949722;29;20031;-74
2023/07/18 09:43:36;;;;;;;0.00;0.00;;;;;;;24.91;43.68;100636.75;4913678;29;20387;-74
2023/07/18 09:46:03;;;;;;;0.00;0.00;;;;;;;25.47;42.48;100651.78;4966982;28;20824;-74
2023/07/18 09:48:29;;;;;;;0.00;0.00;;;;;;;25.75;42.04;100631.25;4953916;28;20116;-73
2023/07/18 09:50:56;;;;;;;0.00;0.00;;;;;;;25.95;40.38;100646.91;4969441;28;20030;-73
2023/07/18 09:53:23;;;;;;;0.00;0.00;;;;;;;25.92;40.61;100639.22;4966676;28;20037;-75
2023/07/18 09:55:52;;;;;;;0.00;0.00;;;;;;;25.89;40.55;100639.97;4924142;29;20055;-74
2023/07/18 09:58:19;;;;;;;0.00;0.00;;;;;;;26.76;40.23;100634.19;4937636;29;20058;-74
2023/07/18 10:00:45;;;;;;;0.00;0.00;;;;;;;27.94;37.25;100640.16;4948419;28;20043;-74
2023/07/18 10:03:11;;;;;;;0.00;0.00;;;;;;;27.99;37.26;100634.28;4904457;29;20122;-74
2023/07/18 10:05:37;;;;;;;0.00;0.00;;;;;;;27.46;36.78;100628.63;4934785;29;20028;-74
2023/07/18 10:08:05;;;;;;;0.00;0.00;;;;;;;26.73;37.44;100634.16;4946213;29;20037;-74
2023/07/18 10:10:31;;;;;;;0.00;0.00;;;;;;;26.45;39.01;100638.78;4937106;29;20035;-73
2023/07/18 10:13:01;;;;;;;0.00;0.00;;;;;;;27.02;38.91;100632.66;4940146;29;20034;-74
2023/07/18 10:15:28;;;;;;;0.00;0.00;;;;;;;26.96;36.30;100629.38;4947519;29;20530;-73
2023/07/18 10:17:53;;;;;;;0.00;0.00;;;;;;;26.71;37.50;100622.47;4931666;29;20027;-74
2023/07/18 10:20:30;;;;;;;0.00;0.00;;;;;;;26.82;37.64;100624.31;4931522;29;20035;-74
2023/07/18 10:22:58;;;;;;;0.00;0.00;;;;;;;27.67;36.70;100633.75;4945402;29;20110;-73
2023/07/18 10:25:26;;;;;;;0.00;0.00;;;;;;;27.36;36.42;100624.44;4940300;29;20500;-74
2023/07/18 10:27:51;;;;;;;0.00;0.00;;;;;;;27.00;36.27;100621.81;4935863;29;20031;-74
2023/07/18 10:30:20;;;;;;;0.00;0.00;;;;;;;26.67;36.76;100625.19;4919403;29;20102;-74
2023/07/18 10:32:54;;;;;;;0.00;0.00;;;;;;;26.96;35.48;100617.34;4945500;29;20031;-74
2023/07/18 10:35:22;;;;;;;0.00;0.00;;;;;;;26.98;34.41;100610.19;4951361;29;20090;-74
2023/07/18 10:37:53;;;;;;;0.00;0.00;;;;;;;27.17;33.63;100622.50;4930667;29;20042;-74
2023/07/18 10:40:39;;;;;;;0.00;0.00;;;;;;;27.15;34.47;100613.66;4947662;29;20386;-74
2023/07/18 10:43:10;;;;;;;0.00;0.00;;;;;;;27.79;34.37;100588.59;4942125;29;20475;-73
2023/07/18 10:45:42;;;;;;;0.00;0.00;;;;;;;29.84;31.45;100594.69;4945198;28;20342;-75
2023/07/18 10:48:16;;;;;;;0.00;0.00;;;;;;;31.03;30.02;100598.72;4933484;29;20093;-73
2023/07/18 10:50:43;;;;;;;0.00;0.00;;;;;;;29.70;30.74;100582.13;4946734;29;20039;-73
2023/07/18 10:53:18;;;;;;;0.00;0.00;;;;;;;28.30;32.14;100590.09;4947862;29;20043;-72
2023/07/18 10:55:45;;;;;;;0.00;0.00;;;;;;;27.84;33.28;100581.84;4960290;28;20497;-74
2023/07/18 10:58:16;;;;;;;0.00;0.00;;;;;;;27.98;32.88;100592.50;4953420;28;20018;-73
2023/07/18 11:00:42;;;;;;;0.00;0.00;;;;;;;28.01;33.41;100586.91;4954668;28;20019;-74
2023/07/18 11:03:21;;;;;;;0.00;0.00;;;;;;;28.64;33.14;100587.25;4913464;28;20117;-73
2023/07/18 11:05:48;;;;;;;0.00;0.00;;;;;;;30.21;30.43;100565.44;4922340;28;20489;-73
2023/07/18 11:08:25;;;;;;;0.00;0.00;;;;;;;30.97;28.33;100574.88;4952590;29;20118;-74
2023/07/18 11:10:58;;;;;;;0.00;0.00;;;;;;;31.26;28.16;100581.34;4928662;29;20031;-74
2023/07/18 11:13:31;;;;;;;0.00;0.00;;;;;;;31.42;28.28;100585.78;4933562;28;20493;-74
2023/07/18 11:16:00;;;;;;;0.00;0.00;;;;;;;33.69;26.21;100567.50;4943189;28;20054;-77
2023/07/18 11:18:25;;;;;;;0.00;0.00;;;;;;;35.43;23.96;100567.44;4945787;28;20058;-76
2023/07/18 11:20:52;;;;;;;0.00;0.00;;;;;;;33.78;24.27;100559.31;4920856;28;20057;-76
2023/07/18 11:23:18;;;;;;;0.00;0.00;;;;;;;31.84;26.91;100570.78;4948416;28;20030;-76
2023/07/18 11:25:43;;;;;;;0.00;0.00;;;;;;;30.41;28.25;100565.91;4944089;28;20023;-77